sensor_id;sensor_type;location;lat;lon;timestamp;P1;durP1;ratioP1;P2;durP2;ratioP2
13411;SDS011;67102;51.666;6.880;2023-03-02T00:00:24;6.90;;;4.70;;
13411;SDS011;67102;51.666;6.880;2023-03-02T00:02:50;6.73;;;4.33;;
13411;SDS011;67102;51.666;6.880;2023-03-02T00:05:16;6.13;;;4.47;;
13411;SDS011;67102;51.666;6.880;2023-03-02T00:07:42;6.60;;;4.70;;
13411;SDS011;67102;51.666;6.880;2023-03-02T00:10:08;6.37;;;4.50;;
13411;SDS011;67102;51.666;6.880;2023-03-02T00:12:36;6.20;;;4.43;;
13411;SDS011;67102;51.666;6.880;2023-03-02T00:15:02;5.90;;;4.20;;
13411;SDS011;67102;51.666;6.880;2023-03-02T00:17:29;6.03;;;4.40;;
13411;SDS011;67102;51.666;6.880;2023-03-02T00:19:55;7.03;;;4.60;;
13411;SDS011;67102;51.666;6.880;2023-03-02T00:22:22;7.27;;;4.63;;
13411;SDS011;67102;51.666;6.880;2023-03-02T00:24:48;4.73;;;3.80;;
13411;SDS011;67102;51.666;6.880;2023-03-02T00:27:13;9.43;;;4.00;;
13411;SDS011;67102;51.666;6.880;2023-03-02T00:29:41;5.83;;;4.00;;
13411;SDS011;67102;51.666;6.880;2023-03-02T00:32:07;6.97;;;3.87;;
13411;SDS011;67102;51.666;6.880;2023-03-02T00:34:33;5.27;;;3.83;;
13411;SDS011;67102;51.666;6.880;2023-03-02T00:36:58;6.57;;;4.67;;
13411;SDS011;67102;51.666;6.880;2023-03-02T00:39:24;6.17;;;4.73;;
13411;SDS011;67102;51.666;6.880;2023-03-02T00:41:50;6.13;;;4.30;;
13411;SDS011;67102;51.666;6.880;2023-03-02T00:44:16;6.17;;;4.20;;
13411;SDS011;67102;51.666;6.880;2023-03-02T00:46:43;7.37;;;4.40;;
13411;SDS011;67102;51.666;6.880;2023-03-02T00:49:09;4.90;;;3.93;;
13411;SDS011;67102;51.666;6.880;2023-03-02T00:51:36;5.23;;;3.90;;
13411;SDS011;67102;51.666;6.880;2023-03-02T00:54:02;6.00;;;4.00;;
13411;SDS011;67102;51.666;6.880;2023-03-02T00:56:28;5.70;;;3.67;;
13411;SDS011;67102;51.666;6.880;2023-03-02T00:58:54;5.23;;;4.10;;
13411;SDS011;67102;51.666;6.880;2023-03-02T01:01:19;6.23;;;4.60;;
13411;SDS011;67102;51.666;6.880;2023-03-02T01:03:47;7.20;;;4.37;;
13411;SDS011;67102;51.666;6.880;2023-03-02T01:06:13;5.73;;;3.83;;
13411;SDS011;67102;51.666;6.880;2023-03-02T01:08:42;5.93;;;3.80;;
13411;SDS011;67102;51.666;6.880;2023-03-02T01:11:11;6.73;;;4.67;;
13411;SDS011;67102;51.666;6.880;2023-03-02T01:13:38;5.13;;;3.90;;
13411;SDS011;67102;51.666;6.880;2023-03-02T01:16:04;6.63;;;4.10;;
13411;SDS011;67102;51.666;6.880;2023-03-02T01:18:31;5.93;;;4.60;;
13411;SDS011;67102;51.666;6.880;2023-03-02T01:21:02;5.97;;;4.20;;
13411;SDS011;67102;51.666;6.880;2023-03-02T01:23:31;6.30;;;4.47;;
13411;SDS011;67102;51.666;6.880;2023-03-02T01:25:57;5.20;;;4.10;;
13411;SDS011;67102;51.666;6.880;2023-03-02T01:28:23;7.47;;;4.30;;
13411;SDS011;67102;51.666;6.880;2023-03-02T01:30:49;6.07;;;4.23;;
13411;SDS011;67102;51.666;6.880;2023-03-02T01:33:15;5.47;;;4.43;;
13411;SDS011;67102;51.666;6.880;2023-03-02T01:35:43;5.37;;;4.17;;
13411;SDS011;67102;51.666;6.880;2023-03-02T01:38:10;4.97;;;3.93;;
13411;SDS011;67102;51.666;6.880;2023-03-02T01:40:36;7.10;;;4.20;;
13411;SDS011;67102;51.666;6.880;2023-03-02T01:43:08;6.27;;;4.07;;
13411;SDS011;67102;51.666;6.880;2023-03-02T01:45:44;6.27;;;3.83;;
13411;SDS011;67102;51.666;6.880;2023-03-02T01:48:15;4.60;;;3.70;;
13411;SDS011;67102;51.666;6.880;2023-03-02T01:50:46;3.70;;;3.33;;
13411;SDS011;67102;51.666;6.880;2023-03-02T01:53:13;5.00;;;3.93;;
13411;SDS011;67102;51.666;6.880;2023-03-02T01:55:40;4.43;;;3.97;;
13411;SDS011;67102;51.666;6.880;2023-03-02T01:58:09;6.03;;;4.27;;
13411;SDS011;67102;51.666;6.880;2023-03-02T02:00:37;4.13;;;3.40;;
13411;SDS011;67102;51.666;6.880;2023-03-02T02:03:05;6.47;;;3.57;;
13411;SDS011;67102;51.666;6.880;2023-03-02T02:05:36;3.80;;;3.00;;
13411;SDS011;67102;51.666;6.880;2023-03-02T02:08:05;3.57;;;3.10;;
13411;SDS011;67102;51.666;6.880;2023-03-02T02:10:34;4.77;;;3.10;;
13411;SDS011;67102;51.666;6.880;2023-03-02T02:13:02;2.90;;;2.60;;
13411;SDS011;67102;51.666;6.880;2023-03-02T02:15:28;4.50;;;2.90;;
13411;SDS011;67102;51.666;6.880;2023-03-02T02:17:54;4.00;;;2.77;;
13411;SDS011;67102;51.666;6.880;2023-03-02T02:20:21;4.50;;;3.10;;
13411;SDS011;67102;51.666;6.880;2023-03-02T02:22:59;4.23;;;3.10;;
13411;SDS011;67102;51.666;6.880;2023-03-02T02:25:53;4.53;;;2.90;;
13411;SDS011;67102;51.666;6.880;2023-03-02T02:28:29;5.17;;;3.23;;
13411;SDS011;67102;51.666;6.880;2023-03-02T02:31:03;3.63;;;3.10;;
13411;SDS011;67102;51.666;6.880;2023-03-02T02:33:33;5.70;;;3.20;;
13411;SDS011;67102;51.666;6.880;2023-03-02T02:36:02;5.20;;;3.20;;
13411;SDS011;67102;51.666;6.880;2023-03-02T02:38:32;5.93;;;3.80;;
13411;SDS011;67102;51.666;6.880;2023-03-02T02:41:00;5.13;;;3.63;;
13411;SDS011;67102;51.666;6.880;2023-03-02T02:43:28;5.70;;;3.97;;
13411;SDS011;67102;51.666;6.880;2023-03-02T02:45:56;4.63;;;3.60;;
13411;SDS011;67102;51.666;6.880;2023-03-02T02:48:23;5.33;;;4.40;;
13411;SDS011;67102;51.666;6.880;2023-03-02T02:50:52;4.80;;;3.67;;
13411;SDS011;67102;51.666;6.880;2023-03-02T02:53:19;6.10;;;4.43;;
13411;SDS011;67102;51.666;6.880;2023-03-02T02:55:50;4.57;;;3.53;;
13411;SDS011;67102;51.666;6.880;2023-03-02T02:58:23;6.17;;;4.13;;
13411;SDS011;67102;51.666;6.880;2023-03-02T03:00:55;5.13;;;3.90;;
13411;SDS011;67102;51.666;6.880;2023-03-02T03:03:23;5.90;;;3.70;;
13411;SDS011;67102;51.666;6.880;2023-03-02T03:05:52;6.07;;;4.10;;
13411;SDS011;67102;51.666;6.880;2023-03-02T03:11:22;5.83;;;3.90;;
13411;SDS011;67102;51.666;6.880;2023-03-02T03:13:52;5.37;;;3.80;;
13411;SDS011;67102;51.666;6.880;2023-03-02T03:16:25;6.17;;;4.10;;
13411;SDS011;67102;51.666;6.880;2023-03-02T03:18:53;5.70;;;3.90;;
13411;SDS011;67102;51.666;6.880;2023-03-02T03:21:21;4.90;;;3.80;;
13411;SDS011;67102;51.666;6.880;2023-03-02T03:23:47;4.57;;;3.70;;
13411;SDS011;67102;51.666;6.880;2023-03-02T03:26:13;4.63;;;3.80;;
13411;SDS011;67102;51.666;6.880;2023-03-02T03:28:39;5.10;;;3.67;;
13411;SDS011;67102;51.666;6.880;2023-03-02T03:31:07;3.50;;;3.20;;
13411;SDS011;67102;51.666;6.880;2023-03-02T03:33:32;4.83;;;3.63;;
13411;SDS011;67102;51.666;6.880;2023-03-02T03:35:58;4.70;;;3.60;;
13411;SDS011;67102;51.666;6.880;2023-03-02T03:38:24;5.13;;;3.77;;
13411;SDS011;67102;51.666;6.880;2023-03-02T03:40:50;5.43;;;3.77;;
13411;SDS011;67102;51.666;6.880;2023-03-02T03:43:16;5.43;;;3.80;;
13411;SDS011;67102;51.666;6.880;2023-03-02T03:45:42;6.33;;;3.90;;
13411;SDS011;67102;51.666;6.880;2023-03-02T03:48:09;4.73;;;3.67;;
13411;SDS011;67102;51.666;6.880;2023-03-02T03:50:35;4.40;;;3.57;;
13411;SDS011;67102;51.666;6.880;2023-03-02T03:53:01;5.20;;;4.00;;
13411;SDS011;67102;51.666;6.880;2023-03-02T03:55:27;4.87;;;3.43;;
13411;SDS011;67102;51.666;6.880;2023-03-02T03:57:53;4.17;;;3.40;;
13411;SDS011;67102;51.666;6.880;2023-03-02T04:00:20;4.47;;;3.30;;
13411;SDS011;67102;51.666;6.880;2023-03-02T04:02:47;4.10;;;3.30;;
13411;SDS011;67102;51.666;6.880;2023-03-02T04:05:14;5.27;;;3.83;;
13411;SDS011;67102;51.666;6.880;2023-03-02T04:07:41;4.40;;;3.53;;
13411;SDS011;67102;51.666;6.880;2023-03-02T04:10:07;4.10;;;2.97;;
13411;SDS011;67102;51.666;6.880;2023-03-02T04:12:36;6.97;;;3.33;;
13411;SDS011;67102;51.666;6.880;2023-03-02T04:15:05;4.93;;;3.50;;
13411;SDS011;67102;51.666;6.880;2023-03-02T04:17:34;5.43;;;3.60;;
13411;SDS011;67102;51.666;6.880;2023-03-02T04:20:00;4.20;;;3.47;;
13411;SDS011;67102;51.666;6.880;2023-03-02T04:22:27;4.33;;;3.70;;
13411;SDS011;67102;51.666;6.880;2023-03-02T04:24:53;4.83;;;3.47;;
13411;SDS011;67102;51.666;6.880;2023-03-02T04:27:19;4.77;;;3.70;;
13411;SDS011;67102;51.666;6.880;2023-03-02T04:29:45;4.83;;;3.50;;
13411;SDS011;67102;51.666;6.880;2023-03-02T04:32:11;5.57;;;4.00;;
13411;SDS011;67102;51.666;6.880;2023-03-02T04:34:37;6.23;;;4.30;;
13411;SDS011;67102;51.666;6.880;2023-03-02T04:37:03;6.97;;;4.27;;
13411;SDS011;67102;51.666;6.880;2023-03-02T04:39:30;6.50;;;4.43;;
13411;SDS011;67102;51.666;6.880;2023-03-02T04:41:56;5.60;;;3.83;;
13411;SDS011;67102;51.666;6.880;2023-03-02T04:44:22;8.63;;;4.30;;
13411;SDS011;67102;51.666;6.880;2023-03-02T04:46:48;7.40;;;4.27;;
13411;SDS011;67102;51.666;6.880;2023-03-02T04:49:15;5.97;;;4.27;;
13411;SDS011;67102;51.666;6.880;2023-03-02T04:51:43;5.67;;;4.20;;
13411;SDS011;67102;51.666;6.880;2023-03-02T04:54:13;6.10;;;4.10;;
13411;SDS011;67102;51.666;6.880;2023-03-02T04:56:42;4.43;;;3.73;;
13411;SDS011;67102;51.666;6.880;2023-03-02T04:59:09;4.67;;;3.83;;
13411;SDS011;67102;51.666;6.880;2023-03-02T05:01:35;6.13;;;3.80;;
13411;SDS011;67102;51.666;6.880;2023-03-02T05:04:01;5.50;;;4.30;;
13411;SDS011;67102;51.666;6.880;2023-03-02T05:06:27;6.40;;;4.77;;
13411;SDS011;67102;51.666;6.880;2023-03-02T05:08:53;6.53;;;4.60;;
13411;SDS011;67102;51.666;6.880;2023-03-02T05:11:19;6.77;;;4.73;;
13411;SDS011;67102;51.666;6.880;2023-03-02T05:13:47;5.67;;;4.23;;
13411;SDS011;67102;51.666;6.880;2023-03-02T05:16:13;5.60;;;4.17;;
13411;SDS011;67102;51.666;6.880;2023-03-02T05:18:39;5.20;;;4.33;;
13411;SDS011;67102;51.666;6.880;2023-03-02T05:21:05;6.60;;;4.40;;
13411;SDS011;67102;51.666;6.880;2023-03-02T05:23:31;5.60;;;4.50;;
13411;SDS011;67102;51.666;6.880;2023-03-02T05:25:57;7.60;;;4.10;;
13411;SDS011;67102;51.666;6.880;2023-03-02T05:28:23;7.20;;;4.60;;
13411;SDS011;67102;51.666;6.880;2023-03-02T05:30:52;6.03;;;4.30;;
13411;SDS011;67102;51.666;6.880;2023-03-02T05:33:18;6.90;;;4.90;;
13411;SDS011;67102;51.666;6.880;2023-03-02T05:35:44;7.10;;;4.37;;
13411;SDS011;67102;51.666;6.880;2023-03-02T05:38:11;6.20;;;4.73;;
13411;SDS011;67102;51.666;6.880;2023-03-02T05:40:37;6.47;;;4.60;;
13411;SDS011;67102;51.666;6.880;2023-03-02T05:43:03;7.67;;;4.97;;
13411;SDS011;67102;51.666;6.880;2023-03-02T05:45:30;8.00;;;5.03;;
13411;SDS011;67102;51.666;6.880;2023-03-02T05:48:00;7.57;;;5.30;;
13411;SDS011;67102;51.666;6.880;2023-03-02T05:50:26;6.07;;;4.80;;
13411;SDS011;67102;51.666;6.880;2023-03-02T05:52:52;6.27;;;4.80;;
13411;SDS011;67102;51.666;6.880;2023-03-02T05:55:18;7.27;;;4.87;;
13411;SDS011;67102;51.666;6.880;2023-03-02T05:57:45;6.30;;;4.67;;
13411;SDS011;67102;51.666;6.880;2023-03-02T06:00:12;6.50;;;4.50;;
13411;SDS011;67102;51.666;6.880;2023-03-02T06:02:40;8.37;;;5.13;;
13411;SDS011;67102;51.666;6.880;2023-03-02T06:05:09;8.57;;;5.20;;
13411;SDS011;67102;51.666;6.880;2023-03-02T06:07:37;7.60;;;5.07;;
13411;SDS011;67102;51.666;6.880;2023-03-02T06:10:03;6.60;;;4.83;;
13411;SDS011;67102;51.666;6.880;2023-03-02T06:12:31;6.27;;;5.30;;
13411;SDS011;67102;51.666;6.880;2023-03-02T06:14:58;6.70;;;5.20;;
13411;SDS011;67102;51.666;6.880;2023-03-02T06:17:23;8.53;;;5.43;;
13411;SDS011;67102;51.666;6.880;2023-03-02T06:19:50;7.30;;;5.40;;
13411;SDS011;67102;51.666;6.880;2023-03-02T06:22:17;7.97;;;5.67;;
13411;SDS011;67102;51.666;6.880;2023-03-02T06:24:43;8.30;;;5.80;;
13411;SDS011;67102;51.666;6.880;2023-03-02T06:27:10;8.37;;;5.70;;
13411;SDS011;67102;51.666;6.880;2023-03-02T06:29:36;10.40;;;6.20;;
13411;SDS011;67102;51.666;6.880;2023-03-02T06:32:02;7.50;;;5.73;;
13411;SDS011;67102;51.666;6.880;2023-03-02T06:34:29;9.67;;;6.30;;
13411;SDS011;67102;51.666;6.880;2023-03-02T06:36:55;11.30;;;6.40;;
13411;SDS011;67102;51.666;6.880;2023-03-02T06:39:22;7.87;;;5.70;;
13411;SDS011;67102;51.666;6.880;2023-03-02T06:41:48;10.50;;;6.80;;
13411;SDS011;67102;51.666;6.880;2023-03-02T06:44:15;9.73;;;7.03;;
13411;SDS011;67102;51.666;6.880;2023-03-02T06:46:42;9.07;;;6.83;;
13411;SDS011;67102;51.666;6.880;2023-03-02T06:49:08;9.87;;;7.13;;
13411;SDS011;67102;51.666;6.880;2023-03-02T06:51:35;11.10;;;7.50;;
13411;SDS011;67102;51.666;6.880;2023-03-02T06:54:02;10.80;;;7.43;;
13411;SDS011;67102;51.666;6.880;2023-03-02T06:56:30;12.77;;;7.90;;
13411;SDS011;67102;51.666;6.880;2023-03-02T06:58:56;12.63;;;7.60;;
13411;SDS011;67102;51.666;6.880;2023-03-02T07:01:22;12.23;;;8.20;;
13411;SDS011;67102;51.666;6.880;2023-03-02T07:03:48;11.77;;;7.87;;
13411;SDS011;67102;51.666;6.880;2023-03-02T07:06:14;12.47;;;8.63;;
13411;SDS011;67102;51.666;6.880;2023-03-02T07:08:41;13.30;;;8.87;;
13411;SDS011;67102;51.666;6.880;2023-03-02T07:11:07;11.57;;;8.00;;
13411;SDS011;67102;51.666;6.880;2023-03-02T07:13:36;13.57;;;8.57;;
13411;SDS011;67102;51.666;6.880;2023-03-02T07:16:04;11.60;;;8.50;;
13411;SDS011;67102;51.666;6.880;2023-03-02T07:18:32;11.33;;;8.20;;
13411;SDS011;67102;51.666;6.880;2023-03-02T07:20:58;12.67;;;9.07;;
13411;SDS011;67102;51.666;6.880;2023-03-02T07:23:24;12.63;;;8.77;;
13411;SDS011;67102;51.666;6.880;2023-03-02T07:25:50;11.93;;;8.70;;
13411;SDS011;67102;51.666;6.880;2023-03-02T07:28:16;10.90;;;7.93;;
13411;SDS011;67102;51.666;6.880;2023-03-02T07:30:43;12.77;;;8.33;;
13411;SDS011;67102;51.666;6.880;2023-03-02T07:33:09;11.03;;;8.43;;
13411;SDS011;67102;51.666;6.880;2023-03-02T07:35:35;12.87;;;8.60;;
13411;SDS011;67102;51.666;6.880;2023-03-02T07:38:01;10.97;;;8.30;;
13411;SDS011;67102;51.666;6.880;2023-03-02T07:40:26;13.30;;;8.63;;
13411;SDS011;67102;51.666;6.880;2023-03-02T07:42:53;12.40;;;9.17;;
13411;SDS011;67102;51.666;6.880;2023-03-02T07:45:19;11.73;;;8.37;;
13411;SDS011;67102;51.666;6.880;2023-03-02T07:47:46;12.80;;;8.93;;
13411;SDS011;67102;51.666;6.880;2023-03-02T07:50:12;11.37;;;8.03;;
13411;SDS011;67102;51.666;6.880;2023-03-02T07:52:38;12.67;;;8.73;;
13411;SDS011;67102;51.666;6.880;2023-03-02T07:55:04;11.70;;;8.67;;
13411;SDS011;67102;51.666;6.880;2023-03-02T07:57:30;10.47;;;8.00;;
13411;SDS011;67102;51.666;6.880;2023-03-02T07:59:56;10.37;;;8.10;;
13411;SDS011;67102;51.666;6.880;2023-03-02T08:02:22;11.13;;;8.13;;
13411;SDS011;67102;51.666;6.880;2023-03-02T08:04:50;12.63;;;8.27;;
13411;SDS011;67102;51.666;6.880;2023-03-02T08:07:16;11.90;;;8.47;;
13411;SDS011;67102;51.666;6.880;2023-03-02T08:09:42;11.83;;;8.37;;
13411;SDS011;67102;51.666;6.880;2023-03-02T08:12:08;10.57;;;7.40;;
13411;SDS011;67102;51.666;6.880;2023-03-02T08:14:34;11.03;;;8.30;;
13411;SDS011;67102;51.666;6.880;2023-03-02T08:17:02;10.03;;;7.93;;
13411;SDS011;67102;51.666;6.880;2023-03-02T08:19:29;11.10;;;7.80;;
13411;SDS011;67102;51.666;6.880;2023-03-02T08:21:57;10.67;;;7.80;;
13411;SDS011;67102;51.666;6.880;2023-03-02T08:24:23;9.43;;;7.40;;
13411;SDS011;67102;51.666;6.880;2023-03-02T08:26:49;9.07;;;6.63;;
13411;SDS011;67102;51.666;6.880;2023-03-02T08:29:15;9.43;;;6.87;;
13411;SDS011;67102;51.666;6.880;2023-03-02T08:31:41;8.60;;;7.33;;
13411;SDS011;67102;51.666;6.880;2023-03-02T08:34:06;8.27;;;6.93;;
13411;SDS011;67102;51.666;6.880;2023-03-02T08:36:32;11.40;;;7.33;;
13411;SDS011;67102;51.666;6.880;2023-03-02T08:39:00;9.83;;;7.27;;
13411;SDS011;67102;51.666;6.880;2023-03-02T08:41:28;9.07;;;7.63;;
13411;SDS011;67102;51.666;6.880;2023-03-02T08:43:54;9.53;;;7.37;;
13411;SDS011;67102;51.666;6.880;2023-03-02T08:46:21;8.47;;;7.17;;
13411;SDS011;67102;51.666;6.880;2023-03-02T08:48:47;8.75;;;7.32;;
13411;SDS011;67102;51.666;6.880;2023-03-02T08:51:14;8.63;;;6.83;;
13411;SDS011;67102;51.666;6.880;2023-03-02T08:53:42;8.23;;;7.07;;
13411;SDS011;67102;51.666;6.880;2023-03-02T08:56:28;8.57;;;7.00;;
13411;SDS011;67102;51.666;6.880;2023-03-02T08:58:58;8.20;;;6.70;;
13411;SDS011;67102;51.666;6.880;2023-03-02T09:01:27;8.23;;;6.47;;
13411;SDS011;67102;51.666;6.880;2023-03-02T09:03:55;8.97;;;6.77;;
13411;SDS011;67102;51.666;6.880;2023-03-02T09:06:22;8.43;;;6.60;;
13411;SDS011;67102;51.666;6.880;2023-03-02T09:08:48;8.77;;;7.27;;
13411;SDS011;67102;51.666;6.880;2023-03-02T09:11:15;8.53;;;7.00;;
13411;SDS011;67102;51.666;6.880;2023-03-02T09:13:43;8.23;;;6.90;;
13411;SDS011;67102;51.666;6.880;2023-03-02T09:16:09;8.23;;;6.73;;
13411;SDS011;67102;51.666;6.880;2023-03-02T09:18:35;6.57;;;5.97;;
13411;SDS011;67102;51.666;6.880;2023-03-02T09:21:01;8.00;;;5.80;;
13411;SDS011;67102;51.666;6.880;2023-03-02T09:23:28;10.33;;;6.37;;
13411;SDS011;67102;51.666;6.880;2023-03-02T09:25:54;8.00;;;5.87;;
13411;SDS011;67102;51.666;6.880;2023-03-02T09:28:22;8.03;;;5.77;;
13411;SDS011;67102;51.666;6.880;2023-03-02T09:30:48;6.93;;;6.20;;
13411;SDS011;67102;51.666;6.880;2023-03-02T09:33:17;8.17;;;6.43;;
13411;SDS011;67102;51.666;6.880;2023-03-02T09:35:44;6.90;;;5.90;;
13411;SDS011;67102;51.666;6.880;2023-03-02T09:38:10;8.63;;;6.50;;
13411;SDS011;67102;51.666;6.880;2023-03-02T09:40:37;9.27;;;7.27;;
13411;SDS011;67102;51.666;6.880;2023-03-02T09:46:09;10.20;;;6.97;;
13411;SDS011;67102;51.666;6.880;2023-03-02T09:48:42;9.57;;;7.17;;
13411;SDS011;67102;51.666;6.880;2023-03-02T09:51:21;9.40;;;7.37;;
13411;SDS011;67102;51.666;6.880;2023-03-02T09:53:57;9.60;;;7.40;;
13411;SDS011;67102;51.666;6.880;2023-03-02T09:56:28;9.03;;;7.30;;
13411;SDS011;67102;51.666;6.880;2023-03-02T09:58:58;7.90;;;6.83;;
13411;SDS011;67102;51.666;6.880;2023-03-02T10:01:31;10.70;;;7.77;;
13411;SDS011;67102;51.666;6.880;2023-03-02T10:04:05;9.07;;;6.47;;
13411;SDS011;67102;51.666;6.880;2023-03-02T10:06:41;8.73;;;6.87;;
13411;SDS011;67102;51.666;6.880;2023-03-02T10:09:08;10.00;;;7.20;;
13411;SDS011;67102;51.666;6.880;2023-03-02T10:11:36;8.27;;;7.00;;
13411;SDS011;67102;51.666;6.880;2023-03-02T10:14:28;9.67;;;7.87;;
13411;SDS011;67102;51.666;6.880;2023-03-02T10:17:03;8.93;;;7.00;;
13411;SDS011;67102;51.666;6.880;2023-03-02T10:19:49;8.07;;;6.87;;
13411;SDS011;67102;51.666;6.880;2023-03-02T10:22:22;9.47;;;7.10;;
13411;SDS011;67102;51.666;6.880;2023-03-02T10:24:55;9.53;;;7.33;;
13411;SDS011;67102;51.666;6.880;2023-03-02T10:27:37;9.57;;;7.07;;
13411;SDS011;67102;51.666;6.880;2023-03-02T10:30:13;7.93;;;6.23;;
13411;SDS011;67102;51.666;6.880;2023-03-02T10:32:45;7.70;;;6.80;;
13411;SDS011;67102;51.666;6.880;2023-03-02T10:35:15;7.80;;;6.10;;
13411;SDS011;67102;51.666;6.880;2023-03-02T10:37:44;8.30;;;6.73;;
13411;SDS011;67102;51.666;6.880;2023-03-02T10:40:11;7.83;;;6.30;;
13411;SDS011;67102;51.666;6.880;2023-03-02T10:42:55;9.30;;;7.03;;
13411;SDS011;67102;51.666;6.880;2023-03-02T10:45:25;7.87;;;6.50;;
13411;SDS011;67102;51.666;6.880;2023-03-02T10:48:01;7.43;;;5.97;;
13411;SDS011;67102;51.666;6.880;2023-03-02T10:50:28;9.30;;;6.60;;
13411;SDS011;67102;51.666;6.880;2023-03-02T10:52:55;7.57;;;6.07;;
13411;SDS011;67102;51.666;6.880;2023-03-02T10:55:21;8.37;;;6.70;;
13411;SDS011;67102;51.666;6.880;2023-03-02T10:57:55;8.23;;;6.77;;
13411;SDS011;67102;51.666;6.880;2023-03-02T11:00:28;7.93;;;6.37;;
13411;SDS011;67102;51.666;6.880;2023-03-02T11:02:56;8.40;;;6.30;;
13411;SDS011;67102;51.666;6.880;2023-03-02T11:05:28;7.77;;;6.27;;
13411;SDS011;67102;51.666;6.880;2023-03-02T11:07:57;7.93;;;6.23;;
13411;SDS011;67102;51.666;6.880;2023-03-02T11:10:26;11.13;;;6.77;;
13411;SDS011;67102;51.666;6.880;2023-03-02T11:12:54;7.70;;;6.30;;
13411;SDS011;67102;51.666;6.880;2023-03-02T11:15:21;8.87;;;6.40;;
13411;SDS011;67102;51.666;6.880;2023-03-02T11:17:54;8.20;;;6.33;;
13411;SDS011;67102;51.666;6.880;2023-03-02T11:20:27;7.23;;;6.03;;
13411;SDS011;67102;51.666;6.880;2023-03-02T11:23:12;8.17;;;6.30;;
13411;SDS011;67102;51.666;6.880;2023-03-02T11:25:44;7.73;;;5.97;;
13411;SDS011;67102;51.666;6.880;2023-03-02T11:28:20;8.87;;;6.03;;
13411;SDS011;67102;51.666;6.880;2023-03-02T11:31:05;8.90;;;6.20;;
13411;SDS011;67102;51.666;6.880;2023-03-02T11:33:45;7.63;;;5.57;;
13411;SDS011;67102;51.666;6.880;2023-03-02T11:36:34;7.20;;;5.90;;
13411;SDS011;67102;51.666;6.880;2023-03-02T11:39:10;7.53;;;5.50;;
13411;SDS011;67102;51.666;6.880;2023-03-02T11:41:41;7.10;;;5.10;;
13411;SDS011;67102;51.666;6.880;2023-03-02T11:44:11;7.57;;;5.80;;
13411;SDS011;67102;51.666;6.880;2023-03-02T11:46:41;10.83;;;6.00;;
13411;SDS011;67102;51.666;6.880;2023-03-02T11:49:14;6.13;;;5.07;;
13411;SDS011;67102;51.666;6.880;2023-03-02T11:51:55;9.40;;;5.00;;
13411;SDS011;67102;51.666;6.880;2023-03-02T11:54:30;7.97;;;5.13;;
13411;SDS011;67102;51.666;6.880;2023-03-02T11:57:02;7.67;;;6.10;;
13411;SDS011;67102;51.666;6.880;2023-03-02T11:59:28;6.63;;;5.10;;
13411;SDS011;67102;51.666;6.880;2023-03-02T12:01:55;7.10;;;5.13;;
13411;SDS011;67102;51.666;6.880;2023-03-02T12:04:29;6.80;;;5.47;;
13411;SDS011;67102;51.666;6.880;2023-03-02T12:06:57;7.43;;;5.80;;
13411;SDS011;67102;51.666;6.880;2023-03-02T12:09:28;5.93;;;4.63;;
13411;SDS011;67102;51.666;6.880;2023-03-02T12:11:59;5.37;;;4.87;;
13411;SDS011;67102;51.666;6.880;2023-03-02T12:14:54;6.10;;;4.87;;
13411;SDS011;67102;51.666;6.880;2023-03-02T12:17:21;7.53;;;4.97;;
13411;SDS011;67102;51.666;6.880;2023-03-02T12:20:08;7.40;;;4.70;;
13411;SDS011;67102;51.666;6.880;2023-03-02T12:22:48;7.47;;;5.07;;
13411;SDS011;67102;51.666;6.880;2023-03-02T12:25:25;7.00;;;5.47;;
13411;SDS011;67102;51.666;6.880;2023-03-02T12:28:01;6.53;;;5.37;;
13411;SDS011;67102;51.666;6.880;2023-03-02T12:30:28;6.43;;;5.20;;
13411;SDS011;67102;51.666;6.880;2023-03-02T12:32:59;7.10;;;5.40;;
13411;SDS011;67102;51.666;6.880;2023-03-02T12:35:31;6.00;;;5.27;;
13411;SDS011;67102;51.666;6.880;2023-03-02T12:37:59;7.07;;;5.80;;
13411;SDS011;67102;51.666;6.880;2023-03-02T12:40:37;7.90;;;5.33;;
13411;SDS011;67102;51.666;6.880;2023-03-02T12:43:20;6.13;;;4.97;;
13411;SDS011;67102;51.666;6.880;2023-03-02T12:46:05;7.03;;;5.03;;
13411;SDS011;67102;51.666;6.880;2023-03-02T12:48:57;7.80;;;5.37;;
13411;SDS011;67102;51.666;6.880;2023-03-02T12:51:46;5.90;;;4.73;;
13411;SDS011;67102;51.666;6.880;2023-03-02T12:54:16;6.73;;;5.60;;
13411;SDS011;67102;51.666;6.880;2023-03-02T12:56:43;6.43;;;5.17;;
13411;SDS011;67102;51.666;6.880;2023-03-02T12:59:18;6.73;;;5.00;;
13411;SDS011;67102;51.666;6.880;2023-03-02T13:01:48;6.70;;;4.50;;
13411;SDS011;67102;51.666;6.880;2023-03-02T13:04:23;5.50;;;4.67;;
13411;SDS011;67102;51.666;6.880;2023-03-02T13:06:52;6.53;;;4.57;;
13411;SDS011;67102;51.666;6.880;2023-03-02T13:09:18;5.33;;;4.60;;
13411;SDS011;67102;51.666;6.880;2023-03-02T13:11:45;5.23;;;4.57;;
13411;SDS011;67102;51.666;6.880;2023-03-02T13:14:19;6.50;;;4.80;;
13411;SDS011;67102;51.666;6.880;2023-03-02T13:16:56;6.33;;;4.87;;
13411;SDS011;67102;51.666;6.880;2023-03-02T13:19:24;5.50;;;4.83;;
13411;SDS011;67102;51.666;6.880;2023-03-02T13:21:53;6.33;;;5.03;;
13411;SDS011;67102;51.666;6.880;2023-03-02T13:24:23;5.07;;;4.43;;
13411;SDS011;67102;51.666;6.880;2023-03-02T13:26:53;5.03;;;4.20;;
13411;SDS011;67102;51.666;6.880;2023-03-02T13:29:24;6.37;;;4.30;;
13411;SDS011;67102;51.666;6.880;2023-03-02T13:31:52;5.97;;;4.57;;
13411;SDS011;67102;51.666;6.880;2023-03-02T13:34:19;5.60;;;4.33;;
13411;SDS011;67102;51.666;6.880;2023-03-02T13:36:47;6.70;;;4.37;;
13411;SDS011;67102;51.666;6.880;2023-03-02T13:39:16;4.97;;;4.40;;
13411;SDS011;67102;51.666;6.880;2023-03-02T13:41:50;4.87;;;4.23;;
13411;SDS011;67102;51.666;6.880;2023-03-02T13:44:18;5.00;;;4.27;;
13411;SDS011;67102;51.666;6.880;2023-03-02T13:46:46;4.80;;;4.40;;
13411;SDS011;67102;51.666;6.880;2023-03-02T13:49:12;5.23;;;4.10;;
13411;SDS011;67102;51.666;6.880;2023-03-02T13:51:39;5.27;;;4.40;;
13411;SDS011;67102;51.666;6.880;2023-03-02T13:54:11;5.33;;;4.47;;
13411;SDS011;67102;51.666;6.880;2023-03-02T13:56:45;6.57;;;4.30;;
13411;SDS011;67102;51.666;6.880;2023-03-02T13:59:11;6.27;;;4.53;;
13411;SDS011;67102;51.666;6.880;2023-03-02T14:01:39;5.37;;;4.43;;
13411;SDS011;67102;51.666;6.880;2023-03-02T14:04:05;5.43;;;4.10;;
13411;SDS011;67102;51.666;6.880;2023-03-02T14:06:35;6.37;;;4.07;;
13411;SDS011;67102;51.666;6.880;2023-03-02T14:09:01;5.10;;;3.93;;
13411;SDS011;67102;51.666;6.880;2023-03-02T14:11:29;6.77;;;4.03;;
13411;SDS011;67102;51.666;6.880;2023-03-02T14:14:00;4.60;;;4.10;;
13411;SDS011;67102;51.666;6.880;2023-03-02T14:16:26;5.80;;;4.67;;
13411;SDS011;67102;51.666;6.880;2023-03-02T14:18:52;7.27;;;4.90;;
13411;SDS011;67102;51.666;6.880;2023-03-02T14:21:19;6.87;;;5.40;;
13411;SDS011;67102;51.666;6.880;2023-03-02T14:23:47;6.20;;;4.83;;
13411;SDS011;67102;51.666;6.880;2023-03-02T14:26:28;6.47;;;4.97;;
13411;SDS011;67102;51.666;6.880;2023-03-02T14:28:59;7.60;;;4.80;;
13411;SDS011;67102;51.666;6.880;2023-03-02T14:31:28;5.47;;;4.70;;
13411;SDS011;67102;51.666;6.880;2023-03-02T14:33:54;5.03;;;4.50;;
13411;SDS011;67102;51.666;6.880;2023-03-02T14:36:22;7.33;;;4.97;;
13411;SDS011;67102;51.666;6.880;2023-03-02T14:38:53;7.83;;;4.90;;
13411;SDS011;67102;51.666;6.880;2023-03-02T14:41:21;6.13;;;4.87;;
13411;SDS011;67102;51.666;6.880;2023-03-02T14:43:49;6.63;;;5.30;;
13411;SDS011;67102;51.666;6.880;2023-03-02T14:46:15;6.97;;;5.77;;
13411;SDS011;67102;51.666;6.880;2023-03-02T14:48:41;10.20;;;7.63;;
13411;SDS011;67102;51.666;6.880;2023-03-02T14:51:08;9.37;;;7.13;;
13411;SDS011;67102;51.666;6.880;2023-03-02T14:53:45;9.47;;;7.30;;
13411;SDS011;67102;51.666;6.880;2023-03-02T14:56:13;10.57;;;7.87;;
13411;SDS011;67102;51.666;6.880;2023-03-02T14:58:42;9.10;;;7.23;;
13411;SDS011;67102;51.666;6.880;2023-03-02T15:01:09;10.20;;;7.43;;